createdAt,value
2022-08-26T00:00:51.867Z,0.00
2022-08-26T00:01:51.902Z,0.00
2022-08-26T00:02:51.877Z,0.00
2022-08-26T00:03:51.896Z,0.00
2022-08-26T00:04:51.833Z,0.00
2022-08-26T00:05:51.839Z,0.00
2022-08-26T00:06:51.811Z,0.00
2022-08-26T00:07:51.816Z,0.00
2022-08-26T00:08:51.782Z,0.00
2022-08-26T00:09:54.466Z,0.00
2022-08-26T00:10:51.770Z,0.00
2022-08-26T00:11:51.756Z,0.00
2022-08-26T00:12:51.777Z,0.00
2022-08-26T00:13:51.762Z,0.00
2022-08-26T00:14:51.721Z,0.00
2022-08-26T00:15:51.721Z,0.00
2022-08-26T00:16:51.764Z,0.00
2022-08-26T00:17:51.693Z,0.00
2022-08-26T00:18:51.719Z,0.00
2022-08-26T00:19:51.672Z,0.00
2022-08-26T00:20:51.667Z,0.00
2022-08-26T00:21:51.665Z,0.00
2022-08-26T00:22:51.652Z,0.00
2022-08-26T00:23:51.634Z,0.00
2022-08-26T00:24:51.650Z,0.00
2022-08-26T00:25:51.607Z,0.00
2022-08-26T00:26:51.798Z,0.00
2022-08-26T00:27:51.609Z,0.00
2022-08-26T00:28:51.586Z,0.00
2022-08-26T00:29:51.595Z,0.00
2022-08-26T00:30:51.766Z,0.00
2022-08-26T00:31:51.630Z,0.00
2022-08-26T00:32:51.562Z,0.00
2022-08-26T00:33:51.531Z,0.00
2022-08-26T00:34:51.541Z,0.00
2022-08-26T00:35:51.682Z,0.00
2022-08-26T00:36:51.805Z,0.00
2022-08-26T00:37:51.503Z,0.00
2022-08-26T00:38:51.490Z,0.00
2022-08-26T00:39:51.512Z,0.00
2022-08-26T00:40:51.496Z,0.00
2022-08-26T00:41:51.476Z,0.00
2022-08-26T00:42:51.471Z,0.00
2022-08-26T00:43:51.437Z,0.00
2022-08-26T00:44:51.429Z,0.00
2022-08-26T00:45:52.472Z,0.00
2022-08-26T00:46:51.408Z,0.00
2022-08-26T00:47:51.432Z,0.00
2022-08-26T00:48:51.393Z,0.00
2022-08-26T00:49:51.386Z,0.00
2022-08-26T00:50:51.372Z,0.00
2022-08-26T00:51:51.365Z,0.00
2022-08-26T00:52:51.351Z,0.00
2022-08-26T00:53:51.367Z,0.00
2022-08-26T00:54:51.330Z,0.00
2022-08-26T00:55:51.317Z,0.00
2022-08-26T00:56:51.313Z,0.00
2022-08-26T00:57:51.300Z,0.00
2022-08-26T00:58:51.311Z,0.00
2022-08-26T00:59:51.296Z,0.00
2022-08-26T01:00:51.305Z,0.00
2022-08-26T01:01:51.359Z,0.00
2022-08-26T01:02:51.262Z,0.00
2022-08-26T01:03:51.238Z,0.00
2022-08-26T01:04:56.026Z,0.00
2022-08-26T01:05:52.227Z,0.00
2022-08-26T01:06:51.234Z,0.00
2022-08-26T01:07:51.237Z,0.00
2022-08-26T01:09:05.490Z,0.00
2022-08-26T01:09:51.183Z,0.00
2022-08-26T01:10:51.176Z,0.00
2022-08-26T01:11:51.172Z,0.00
2022-08-26T01:12:51.170Z,0.00
2022-08-26T01:13:51.160Z,0.00
2022-08-26T01:14:51.147Z,0.00
2022-08-26T01:15:51.137Z,0.00
2022-08-26T01:16:51.194Z,0.00
2022-08-26T01:17:51.120Z,0.00
2022-08-26T01:18:51.114Z,0.00
2022-08-26T01:19:51.118Z,0.00
2022-08-26T01:20:51.085Z,0.00
2022-08-26T01:21:51.080Z,0.00
2022-08-26T01:22:52.280Z,0.00
2022-08-26T01:23:51.064Z,0.00
2022-08-26T01:24:51.070Z,0.00
2022-08-26T01:25:51.042Z,0.00
2022-08-26T01:26:51.030Z,0.00
2022-08-26T01:27:51.032Z,0.00
2022-08-26T01:28:51.711Z,0.00
2022-08-26T01:29:51.018Z,0.00
2022-08-26T01:30:51.986Z,0.00
2022-08-26T01:31:51.050Z,0.00
2022-08-26T01:32:50.976Z,0.00
2022-08-26T01:33:50.956Z,0.00
2022-08-26T01:34:50.973Z,0.00
2022-08-26T01:35:50.935Z,0.00
2022-08-26T01:36:51.487Z,0.00
2022-08-26T01:37:51.915Z,0.00
2022-08-26T01:38:50.902Z,0.00
2022-08-26T01:39:50.947Z,0.00
2022-08-26T01:40:50.884Z,0.00
2022-08-26T01:41:53.578Z,0.00
2022-08-26T01:42:50.877Z,0.00
2022-08-26T01:43:50.870Z,0.00
2022-08-26T01:44:50.858Z,0.00
2022-08-26T01:45:50.909Z,0.00
2022-08-26T01:46:50.827Z,0.00
2022-08-26T01:47:56.634Z,0.00
2022-08-26T01:48:52.366Z,0.00
2022-08-26T01:49:50.914Z,0.00
2022-08-26T01:50:50.805Z,0.00
2022-08-26T01:51:50.777Z,0.00
2022-08-26T01:52:53.451Z,0.00
2022-08-26T01:53:50.749Z,0.00
2022-08-26T01:54:51.156Z,0.00
2022-08-26T01:55:50.739Z,0.00
2022-08-26T01:56:50.727Z,0.00
2022-08-26T01:57:50.731Z,0.00
2022-08-26T01:58:50.707Z,0.00
2022-08-26T01:59:50.698Z,0.00
2022-08-26T02:00:50.723Z,0.00
2022-08-26T02:01:50.688Z,0.00
2022-08-26T02:02:50.675Z,0.00
2022-08-26T02:03:50.683Z,0.00
2022-08-26T02:04:50.697Z,0.00
2022-08-26T02:05:51.263Z,0.00
2022-08-26T02:06:50.655Z,0.00
2022-08-26T02:07:50.623Z,0.00
2022-08-26T02:08:50.632Z,0.00
2022-08-26T02:09:50.602Z,0.00
2022-08-26T02:10:50.604Z,0.00
2022-08-26T02:11:51.052Z,0.00
2022-08-26T02:12:50.572Z,0.00
2022-08-26T02:13:50.554Z,0.00
2022-08-26T02:14:51.210Z,0.00
2022-08-26T02:15:50.559Z,0.00
2022-08-26T02:16:50.536Z,0.00
2022-08-26T02:17:52.687Z,0.00
2022-08-26T02:18:50.514Z,0.00
2022-08-26T02:19:50.502Z,0.00
2022-08-26T02:20:51.687Z,0.00
2022-08-26T02:21:51.004Z,0.00
2022-08-26T02:22:50.467Z,0.00
2022-08-26T02:23:50.469Z,0.00
2022-08-26T02:24:50.463Z,0.00
2022-08-26T02:25:50.437Z,0.00
2022-08-26T02:26:50.444Z,0.00
2022-08-26T02:27:50.405Z,0.00
2022-08-26T02:28:50.418Z,0.00
2022-08-26T02:29:50.395Z,0.00
2022-08-26T02:30:50.379Z,0.00
2022-08-26T02:31:50.443Z,0.00
2022-08-26T02:32:50.366Z,0.00
2022-08-26T02:33:50.374Z,0.00
2022-08-26T02:34:50.345Z,0.00
2022-08-26T02:35:50.338Z,0.00
2022-08-26T02:36:50.868Z,0.00
2022-08-26T02:37:50.325Z,0.00
2022-08-26T02:38:50.290Z,0.00
2022-08-26T02:39:51.333Z,0.00
2022-08-26T02:40:50.307Z,0.00
2022-08-26T02:41:50.297Z,0.00
2022-08-26T02:42:50.275Z,0.00
2022-08-26T02:43:50.252Z,0.00
2022-08-26T02:44:50.362Z,0.00
2022-08-26T02:45:50.232Z,0.00
2022-08-26T02:46:50.242Z,0.00
2022-08-26T02:47:50.231Z,0.00
2022-08-26T02:48:50.211Z,0.00
2022-08-26T02:49:50.201Z,0.00
2022-08-26T02:50:50.197Z,0.00
2022-08-26T02:51:50.180Z,0.00
2022-08-26T02:52:50.162Z,0.00
2022-08-26T02:53:50.172Z,0.00
2022-08-26T02:54:50.147Z,0.00
2022-08-26T02:55:50.135Z,0.00
2022-08-26T02:56:50.121Z,0.00
2022-08-26T02:57:50.116Z,0.00
2022-08-26T02:58:50.120Z,0.00
2022-08-26T02:59:50.122Z,0.00
2022-08-26T03:00:52.932Z,0.00
2022-08-26T03:01:50.199Z,0.00
2022-08-26T03:02:50.093Z,0.00
2022-08-26T03:03:50.057Z,0.00
2022-08-26T03:04:57.936Z,0.00
2022-08-26T03:05:51.063Z,0.00
2022-08-26T03:06:52.767Z,0.00
2022-08-26T03:07:50.026Z,0.00
2022-08-26T03:08:50.011Z,0.00
2022-08-26T03:09:49.993Z,0.00
2022-08-26T03:10:50.015Z,0.00
2022-08-26T03:11:49.970Z,0.00
2022-08-26T03:12:49.986Z,0.00
2022-08-26T03:13:49.960Z,0.00
2022-08-26T03:14:49.962Z,0.00
2022-08-26T03:15:49.991Z,0.00
2022-08-26T03:16:49.918Z,0.00
2022-08-26T03:17:50.354Z,0.00
2022-08-26T03:18:52.224Z,0.00
2022-08-26T03:19:54.323Z,0.00
2022-08-26T03:20:51.894Z,0.00
2022-08-26T03:21:49.881Z,0.00
2022-08-26T03:22:49.876Z,0.00
2022-08-26T03:23:49.857Z,0.00
2022-08-26T03:24:49.857Z,0.00
2022-08-26T03:25:49.861Z,0.00
2022-08-26T03:26:52.730Z,0.00
2022-08-26T03:27:49.826Z,0.00
2022-08-26T03:28:49.826Z,0.00
2022-08-26T03:29:49.805Z,0.00
2022-08-26T03:30:49.789Z,0.00
2022-08-26T03:31:49.811Z,0.00
2022-08-26T03:32:49.768Z,0.00
2022-08-26T03:33:49.764Z,0.00
2022-08-26T03:34:49.770Z,0.00
2022-08-26T03:35:50.757Z,0.00
2022-08-26T03:36:49.741Z,0.00
2022-08-26T03:37:49.715Z,0.00
2022-08-26T03:38:49.720Z,0.00
2022-08-26T03:39:49.737Z,0.00
2022-08-26T03:40:49.689Z,0.00
2022-08-26T03:41:49.681Z,0.00
2022-08-26T03:42:49.672Z,0.00
2022-08-26T03:43:49.670Z,0.00
2022-08-26T03:44:49.652Z,0.00
2022-08-26T03:45:49.635Z,0.00
2022-08-26T03:46:49.656Z,0.00
2022-08-26T03:47:49.622Z,0.00
2022-08-26T03:48:49.618Z,0.00
2022-08-26T03:49:49.589Z,0.00
2022-08-26T03:50:49.597Z,0.00
2022-08-26T03:51:49.645Z,0.00
2022-08-26T03:52:49.590Z,0.00
2022-08-26T03:53:49.556Z,0.00
2022-08-26T03:54:49.568Z,0.00
2022-08-26T03:55:52.002Z,0.00
2022-08-26T03:56:49.533Z,0.00
2022-08-26T03:57:49.521Z,0.00
2022-08-26T03:58:49.518Z,0.00
2022-08-26T03:59:49.500Z,0.00
2022-08-26T04:00:49.485Z,0.00
2022-08-26T04:01:49.525Z,0.00
2022-08-26T04:02:49.531Z,0.00
2022-08-26T04:03:49.453Z,0.00
2022-08-26T04:04:49.493Z,0.00
2022-08-26T04:05:49.436Z,0.00
2022-08-26T04:06:49.426Z,0.00
2022-08-26T04:07:49.436Z,0.00
2022-08-26T04:08:49.414Z,0.00
2022-08-26T04:09:49.408Z,5.62
2022-08-26T04:10:49.384Z,5.62
2022-08-26T04:11:50.716Z,5.62
2022-08-26T04:12:49.394Z,5.62
2022-08-26T04:13:49.397Z,11.25
2022-08-26T04:14:49.353Z,11.25
2022-08-26T04:15:49.407Z,11.25
2022-08-26T04:16:49.354Z,16.88
2022-08-26T04:17:49.322Z,16.88
2022-08-26T04:18:49.334Z,16.88
2022-08-26T04:19:49.303Z,16.88
2022-08-26T04:20:49.306Z,22.50
2022-08-26T04:21:49.297Z,22.50
2022-08-26T04:22:49.279Z,22.50
2022-08-26T04:23:49.283Z,22.50
2022-08-26T04:24:49.260Z,28.12
2022-08-26T04:25:49.247Z,28.12
2022-08-26T04:26:49.242Z,28.12
2022-08-26T04:27:49.232Z,33.75
2022-08-26T04:28:49.231Z,33.75
2022-08-26T04:29:51.454Z,33.75
2022-08-26T04:30:51.422Z,39.38
2022-08-26T04:31:49.196Z,39.38
2022-08-26T04:32:49.202Z,39.38
2022-08-26T04:33:49.560Z,45.00
2022-08-26T04:34:49.184Z,50.62
2022-08-26T04:35:49.142Z,50.62
2022-08-26T04:36:49.134Z,56.25
2022-08-26T04:37:49.144Z,61.88
2022-08-26T04:38:49.106Z,67.50
2022-08-26T04:39:49.154Z,67.50
2022-08-26T04:40:49.112Z,73.12
2022-08-26T04:41:49.089Z,73.12
2022-08-26T04:42:49.098Z,78.75
2022-08-26T04:43:49.067Z,84.38
2022-08-26T04:44:49.062Z,90.00
2022-08-26T04:45:49.066Z,95.62
2022-08-26T04:46:49.079Z,95.62
2022-08-26T04:47:49.061Z,95.62
2022-08-26T04:48:49.015Z,101.25
2022-08-26T04:49:48.992Z,106.88
2022-08-26T04:50:49.597Z,112.50
2022-08-26T04:51:48.987Z,118.12
2022-08-26T04:52:48.990Z,129.38
2022-08-26T04:53:48.966Z,146.25
2022-08-26T04:54:48.970Z,196.88
2022-08-26T04:55:48.931Z,230.62
2022-08-26T04:56:48.957Z,236.25
2022-08-26T04:57:48.922Z,230.62
2022-08-26T04:58:48.916Z,225.00
2022-08-26T04:59:48.918Z,258.75
2022-08-26T05:00:48.913Z,303.75
2022-08-26T05:01:48.912Z,309.38
2022-08-26T05:02:48.859Z,292.50
2022-08-26T05:03:48.885Z,264.38
2022-08-26T05:04:48.862Z,241.88
2022-08-26T05:05:48.872Z,247.50
2022-08-26T05:06:48.822Z,264.38
2022-08-26T05:07:48.827Z,264.38
2022-08-26T05:08:48.826Z,264.38
2022-08-26T05:09:48.830Z,275.62
2022-08-26T05:10:48.805Z,303.75
2022-08-26T05:11:52.174Z,309.38
2022-08-26T05:12:48.775Z,298.12
2022-08-26T05:13:48.788Z,292.50
2022-08-26T05:14:48.786Z,315.00
2022-08-26T05:15:48.801Z,354.38
2022-08-26T05:16:49.316Z,388.12
2022-08-26T05:17:48.741Z,399.38
2022-08-26T05:18:48.728Z,427.50
2022-08-26T05:19:48.726Z,483.75
2022-08-26T05:20:48.730Z,523.12
2022-08-26T05:21:48.811Z,517.50
2022-08-26T05:22:48.726Z,444.38
2022-08-26T05:23:48.692Z,382.50
2022-08-26T05:24:48.726Z,292.50
2022-08-26T05:25:48.660Z,275.62
2022-08-26T05:26:48.643Z,275.62
2022-08-26T05:27:48.644Z,270.00
2022-08-26T05:28:48.639Z,264.38
2022-08-26T05:29:48.614Z,264.38
2022-08-26T05:30:49.647Z,258.75
2022-08-26T05:31:48.605Z,258.75
2022-08-26T05:32:51.518Z,253.12
2022-08-26T05:33:49.606Z,258.75
2022-08-26T05:34:48.574Z,253.12
2022-08-26T05:35:48.554Z,253.12
2022-08-26T05:36:48.542Z,258.75
2022-08-26T05:37:48.542Z,264.38
2022-08-26T05:38:48.541Z,264.38
2022-08-26T05:39:51.162Z,275.62
2022-08-26T05:40:48.497Z,275.62
2022-08-26T05:41:48.506Z,281.25
2022-08-26T05:42:48.483Z,281.25
2022-08-26T05:43:48.490Z,286.88
2022-08-26T05:44:55.796Z,286.88
2022-08-26T05:45:49.492Z,292.50
2022-08-26T05:46:48.516Z,298.12
2022-08-26T05:47:48.439Z,303.75
2022-08-26T05:48:48.433Z,303.75
2022-08-26T05:49:51.392Z,303.75
2022-08-26T05:50:48.406Z,298.12
2022-08-26T05:51:48.417Z,292.50
2022-08-26T05:52:48.388Z,286.88
2022-08-26T05:53:54.592Z,286.88
2022-08-26T05:54:49.395Z,286.88
2022-08-26T05:55:48.367Z,298.12
2022-08-26T05:56:48.357Z,309.38
2022-08-26T05:57:48.343Z,320.62
2022-08-26T05:58:48.342Z,331.88
2022-08-26T05:59:48.342Z,343.12
2022-08-26T06:00:48.324Z,354.38
2022-08-26T06:01:48.416Z,371.25
2022-08-26T06:02:48.549Z,376.88
2022-08-26T06:03:49.010Z,376.88
2022-08-26T06:04:48.269Z,365.62
2022-08-26T06:05:48.260Z,354.38
2022-08-26T06:06:48.270Z,343.12
2022-08-26T06:07:48.246Z,326.25
2022-08-26T06:08:48.256Z,320.62
2022-08-26T06:09:48.221Z,309.38
2022-08-26T06:10:48.219Z,309.38
2022-08-26T06:11:48.223Z,315.00
2022-08-26T06:12:49.196Z,320.62
2022-08-26T06:13:48.383Z,326.25
2022-08-26T06:14:49.051Z,331.88
2022-08-26T06:15:48.227Z,337.50
2022-08-26T06:16:48.169Z,343.12
2022-08-26T06:17:48.148Z,354.38
2022-08-26T06:18:48.143Z,360.00
2022-08-26T06:19:48.127Z,371.25
2022-08-26T06:20:56.904Z,388.12
2022-08-26T06:21:54.164Z,478.12
2022-08-26T06:22:49.104Z,781.88
2022-08-26T06:23:48.110Z,1293.75
2022-08-26T06:24:48.097Z,1608.75
2022-08-26T06:25:48.090Z,483.75
2022-08-26T06:26:50.934Z,843.75
2022-08-26T06:27:48.104Z,534.38
2022-08-26T06:28:48.029Z,506.25
2022-08-26T06:29:48.027Z,495.00
2022-08-26T06:30:48.063Z,500.62
2022-08-26T06:31:48.034Z,534.38
2022-08-26T06:32:48.009Z,562.50
2022-08-26T06:33:47.988Z,585.00
2022-08-26T06:34:48.014Z,669.38
2022-08-26T06:35:47.970Z,1653.75
2022-08-26T06:36:47.979Z,753.75
2022-08-26T06:37:47.961Z,725.62
2022-08-26T06:38:47.951Z,804.38
2022-08-26T06:39:47.973Z,725.62
2022-08-26T06:40:47.927Z,736.88
2022-08-26T06:41:47.919Z,714.38
2022-08-26T06:42:47.911Z,708.75
2022-08-26T06:43:47.891Z,714.38
2022-08-26T06:44:47.906Z,731.25
2022-08-26T06:45:47.880Z,770.62
2022-08-26T06:46:50.405Z,810.00
2022-08-26T06:47:47.875Z,815.62
2022-08-26T06:48:47.846Z,883.12
2022-08-26T06:49:47.861Z,883.12
2022-08-26T06:50:47.843Z,933.75
2022-08-26T06:51:47.816Z,1265.62
2022-08-26T06:52:47.822Z,1001.25
2022-08-26T06:53:48.308Z,2503.12
2022-08-26T06:54:47.799Z,2351.25
2022-08-26T06:55:47.784Z,2700.00
2022-08-26T06:56:48.008Z,2559.38
2022-08-26T06:57:47.748Z,2643.75
2022-08-26T06:58:47.783Z,2632.50
2022-08-26T06:59:47.870Z,2446.88
2022-08-26T07:00:47.726Z,1968.75
2022-08-26T07:01:47.744Z,1361.25
2022-08-26T07:02:47.798Z,1001.25
2022-08-26T07:03:47.695Z,973.12
2022-08-26T07:04:48.041Z,967.50
2022-08-26T07:05:47.691Z,973.12
2022-08-26T07:06:47.682Z,1068.75
2022-08-26T07:07:48.660Z,1186.88
2022-08-26T07:08:47.663Z,2238.75
2022-08-26T07:10:19.566Z,2317.50
2022-08-26T07:10:47.648Z,1867.50
2022-08-26T07:11:47.615Z,2008.12
2022-08-26T07:12:48.635Z,1839.38
2022-08-26T07:13:47.615Z,2272.50
2022-08-26T07:14:48.174Z,2531.25
2022-08-26T07:15:47.625Z,2548.12
2022-08-26T07:16:48.591Z,2475.00
2022-08-26T07:17:47.563Z,2418.75
2022-08-26T07:18:47.581Z,2452.50
2022-08-26T07:19:47.577Z,2385.00
2022-08-26T07:20:47.538Z,2418.75
2022-08-26T07:21:47.537Z,2379.38
2022-08-26T07:22:47.528Z,2295.00
2022-08-26T07:23:47.528Z,1980.00
2022-08-26T07:24:47.521Z,2283.75
2022-08-26T07:25:47.507Z,2165.62
2022-08-26T07:26:47.487Z,1974.38
2022-08-26T07:27:53.948Z,1946.25
2022-08-26T07:28:48.470Z,1766.25
2022-08-26T07:29:47.492Z,1636.88
2022-08-26T07:30:47.498Z,1192.50
2022-08-26T07:31:47.445Z,1136.25
2022-08-26T07:32:47.442Z,1074.38
2022-08-26T07:33:47.435Z,1445.62
2022-08-26T07:34:47.422Z,1524.38
2022-08-26T07:35:47.425Z,1603.12
2022-08-26T07:36:47.399Z,1991.25
2022-08-26T07:37:47.381Z,2064.38
2022-08-26T07:38:48.391Z,2131.88
2022-08-26T07:39:47.511Z,2193.75
2022-08-26T07:40:47.362Z,2120.62
2022-08-26T07:41:47.371Z,2109.38
2022-08-26T07:42:47.355Z,2210.62
2022-08-26T07:43:47.333Z,1681.88
2022-08-26T07:44:47.355Z,2137.50
2022-08-26T07:45:47.325Z,1496.25
2022-08-26T07:46:53.033Z,1445.62
2022-08-26T07:47:48.357Z,1501.88
2022-08-26T07:48:47.281Z,3043.12
2022-08-26T07:49:47.274Z,3065.62
2022-08-26T07:50:50.317Z,3144.38
2022-08-26T07:51:47.252Z,3138.75
2022-08-26T07:52:47.260Z,3138.75
2022-08-26T07:53:48.083Z,3088.12
2022-08-26T07:54:48.237Z,2891.25
2022-08-26T07:55:47.240Z,2896.88
2022-08-26T07:56:47.210Z,3003.75
2022-08-26T07:57:47.207Z,3020.62
2022-08-26T07:58:51.532Z,2998.12
2022-08-26T07:59:48.186Z,2919.38
2022-08-26T08:00:47.202Z,2936.25
2022-08-26T08:01:47.196Z,2936.25
2022-08-26T08:02:47.160Z,2919.38
2022-08-26T08:03:47.146Z,1850.62
2022-08-26T08:04:47.250Z,2716.88
2022-08-26T08:05:47.145Z,2520.00
2022-08-26T08:06:47.146Z,1456.88
2022-08-26T08:07:47.145Z,1265.62
2022-08-26T08:08:47.117Z,1231.88
2022-08-26T08:09:47.110Z,1321.88
2022-08-26T08:10:48.841Z,1681.88
2022-08-26T08:11:47.110Z,1642.50
2022-08-26T08:12:47.072Z,1980.00
2022-08-26T08:13:47.069Z,1355.62
2022-08-26T08:14:47.052Z,1597.50
2022-08-26T08:15:47.040Z,1766.25
2022-08-26T08:16:47.234Z,1726.88
2022-08-26T08:17:47.024Z,1524.38
2022-08-26T08:18:47.028Z,1406.25
2022-08-26T08:19:46.995Z,1226.25
2022-08-26T08:20:59.063Z,1046.25
2022-08-26T08:21:48.973Z,973.12
2022-08-26T08:22:47.031Z,945.00
2022-08-26T08:23:46.968Z,978.75
2022-08-26T08:24:49.997Z,1018.12
2022-08-26T08:25:47.954Z,1023.75
2022-08-26T08:26:46.988Z,1035.00
2022-08-26T08:27:46.988Z,1040.62
2022-08-26T08:28:48.026Z,1029.38
2022-08-26T08:29:46.930Z,1029.38
2022-08-26T08:30:47.014Z,1012.50
2022-08-26T08:32:02.342Z,1006.88
2022-08-26T08:32:48.952Z,1023.75
2022-08-26T08:33:46.889Z,1102.50
2022-08-26T08:34:46.874Z,1839.38
2022-08-26T08:35:46.868Z,2025.00
2022-08-26T08:36:46.861Z,2047.50
2022-08-26T08:37:46.848Z,1254.38
2022-08-26T08:38:46.856Z,1108.12
2022-08-26T08:39:46.835Z,1051.88
2022-08-26T08:40:46.822Z,1029.38
2022-08-26T08:41:46.809Z,1006.88
2022-08-26T08:42:47.043Z,978.75
2022-08-26T08:43:46.835Z,956.25
2022-08-26T08:44:52.067Z,978.75
2022-08-26T08:45:47.827Z,1141.88
2022-08-26T08:46:46.765Z,945.00
2022-08-26T08:47:46.757Z,928.12
2022-08-26T08:48:46.771Z,916.88
2022-08-26T08:49:46.738Z,900.00
2022-08-26T08:50:46.725Z,888.75
2022-08-26T08:51:46.727Z,871.88
2022-08-26T08:52:46.716Z,855.00
2022-08-26T08:53:46.700Z,838.12
2022-08-26T08:54:46.712Z,810.00
2022-08-26T08:55:46.710Z,810.00
2022-08-26T08:56:46.672Z,815.62
2022-08-26T08:57:46.683Z,821.25
2022-08-26T08:58:46.663Z,838.12
2022-08-26T08:59:46.649Z,849.38
2022-08-26T09:00:46.663Z,871.88
2022-08-26T09:01:46.631Z,894.38
2022-08-26T09:02:46.647Z,888.75
2022-08-26T09:03:46.627Z,888.75
2022-08-26T09:04:46.605Z,877.50
2022-08-26T09:05:48.863Z,888.75
2022-08-26T09:06:47.624Z,911.25
2022-08-26T09:07:47.008Z,1451.25
2022-08-26T09:08:46.566Z,945.00
2022-08-26T09:09:46.557Z,984.38
2022-08-26T09:10:46.558Z,1023.75
2022-08-26T09:11:46.528Z,866.25
2022-08-26T09:12:46.525Z,810.00
2022-08-26T09:13:46.514Z,793.12
2022-08-26T09:14:46.507Z,787.50
2022-08-26T09:15:46.511Z,776.25
2022-08-26T09:16:46.559Z,765.00
2022-08-26T09:17:46.483Z,765.00
2022-08-26T09:18:46.481Z,765.00
2022-08-26T09:19:46.493Z,776.25
2022-08-26T09:20:46.467Z,838.12
2022-08-26T09:21:46.460Z,978.75
2022-08-26T09:22:47.433Z,1940.62
2022-08-26T09:23:49.479Z,945.00
2022-08-26T09:24:48.508Z,928.12
2022-08-26T09:25:46.421Z,945.00
2022-08-26T09:26:47.414Z,1215.00
2022-08-26T09:27:46.401Z,1080.00
2022-08-26T09:28:46.367Z,1046.25
2022-08-26T09:29:50.367Z,1068.75
2022-08-26T09:30:46.411Z,1175.62
2022-08-26T09:31:46.387Z,1366.88
2022-08-26T09:32:56.072Z,1558.12
2022-08-26T09:33:47.331Z,1108.12
2022-08-26T09:34:46.320Z,1383.75
2022-08-26T09:35:46.302Z,1411.88
2022-08-26T09:36:46.318Z,1366.88
2022-08-26T09:38:46.283Z,1293.75
2022-08-26T09:39:46.270Z,1237.50
2022-08-26T09:40:46.274Z,1186.88
2022-08-26T09:41:47.252Z,1158.75
2022-08-26T09:42:46.265Z,1125.00
2022-08-26T09:43:46.236Z,1091.25
2022-08-26T09:44:46.267Z,1091.25
2022-08-26T09:45:50.772Z,1085.62
2022-08-26T09:46:47.202Z,1068.75
2022-08-26T09:47:46.226Z,1046.25
2022-08-26T09:48:46.198Z,1040.62
2022-08-26T09:49:46.189Z,1029.38
2022-08-26T09:50:46.186Z,1023.75
2022-08-26T09:51:46.172Z,1018.12
2022-08-26T09:52:46.175Z,1006.88
2022-08-26T09:53:46.147Z,995.62
2022-08-26T09:54:46.233Z,990.00
2022-08-26T09:55:46.130Z,961.88
2022-08-26T09:56:46.121Z,961.88
2022-08-26T09:57:46.107Z,961.88
2022-08-26T09:58:46.095Z,978.75
2022-08-26T09:59:46.114Z,933.75
2022-08-26T10:00:46.118Z,708.75
2022-08-26T10:01:46.186Z,675.00
2022-08-26T10:02:47.650Z,748.12
2022-08-26T10:03:47.112Z,798.75
2022-08-26T10:04:46.120Z,916.88
2022-08-26T10:05:46.058Z,928.12
2022-08-26T10:06:46.029Z,916.88
2022-08-26T10:07:46.018Z,905.62
2022-08-26T10:08:47.482Z,888.75
2022-08-26T10:09:46.002Z,866.25
2022-08-26T10:10:46.017Z,855.00
2022-08-26T10:11:47.660Z,832.50
2022-08-26T10:12:45.972Z,815.62
2022-08-26T10:13:45.955Z,826.88
2022-08-26T10:15:50.029Z,832.50
2022-08-26T10:16:47.059Z,826.88
2022-08-26T10:17:45.933Z,832.50
2022-08-26T10:18:45.921Z,832.50
2022-08-26T10:19:57.125Z,821.25
2022-08-26T10:20:46.907Z,815.62
2022-08-26T10:21:45.893Z,804.38
2022-08-26T10:22:45.885Z,798.75
2022-08-26T10:23:45.884Z,781.88
2022-08-26T10:24:46.377Z,759.38
2022-08-26T10:25:45.993Z,742.50
2022-08-26T10:26:45.887Z,703.12
2022-08-26T10:27:51.075Z,663.75
2022-08-26T10:28:45.825Z,573.75
2022-08-26T10:29:45.837Z,528.75
2022-08-26T10:30:45.813Z,506.25
2022-08-26T10:31:45.830Z,461.25
2022-08-26T10:32:45.787Z,410.62
2022-08-26T10:33:45.787Z,393.75
2022-08-26T10:34:45.791Z,382.50
2022-08-26T10:35:45.773Z,376.88
2022-08-26T10:37:10.580Z,371.25
2022-08-26T10:37:47.760Z,371.25
2022-08-26T10:38:45.732Z,371.25
2022-08-26T10:39:46.046Z,371.25
2022-08-26T10:40:45.823Z,371.25
2022-08-26T10:41:45.708Z,371.25
2022-08-26T10:42:45.701Z,376.88
2022-08-26T10:43:45.691Z,376.88
2022-08-26T10:44:45.685Z,382.50
2022-08-26T10:45:45.732Z,393.75
2022-08-26T10:46:45.662Z,393.75
2022-08-26T10:47:45.645Z,399.38
2022-08-26T10:48:45.644Z,399.38
2022-08-26T10:49:45.628Z,405.00
2022-08-26T10:50:47.480Z,410.62
2022-08-26T10:51:46.634Z,416.25
2022-08-26T10:52:45.596Z,421.88
2022-08-26T10:53:45.623Z,416.25
2022-08-26T10:54:45.579Z,421.88
2022-08-26T10:55:45.573Z,427.50
2022-08-26T10:56:45.560Z,433.12
2022-08-26T10:57:45.578Z,433.12
2022-08-26T10:58:45.657Z,438.75
2022-08-26T10:59:45.538Z,438.75
2022-08-26T11:00:45.567Z,444.38
2022-08-26T11:01:47.014Z,444.38
2022-08-26T11:02:47.090Z,444.38
2022-08-26T11:03:45.548Z,450.00
2022-08-26T11:04:48.325Z,450.00
2022-08-26T11:05:45.479Z,455.62
2022-08-26T11:06:45.459Z,455.62
2022-08-26T11:07:45.456Z,455.62
2022-08-26T11:08:45.477Z,461.25
2022-08-26T11:09:45.438Z,461.25
2022-08-26T11:10:45.428Z,461.25
2022-08-26T11:11:45.426Z,461.25
2022-08-26T11:12:45.420Z,461.25
2022-08-26T11:13:45.402Z,466.88
2022-08-26T11:14:53.234Z,466.88
2022-08-26T11:15:46.388Z,466.88
2022-08-26T11:16:45.484Z,472.50
2022-08-26T11:17:45.379Z,478.12
2022-08-26T11:18:45.358Z,483.75
2022-08-26T11:20:00.271Z,489.38
2022-08-26T11:20:47.411Z,495.00
2022-08-26T11:21:45.337Z,495.00
2022-08-26T11:22:47.794Z,500.62
2022-08-26T11:23:45.323Z,500.62
2022-08-26T11:24:46.301Z,511.88
2022-08-26T11:25:45.315Z,506.25
2022-08-26T11:26:56.330Z,511.88
2022-08-26T11:27:46.303Z,511.88
2022-08-26T11:28:45.264Z,517.50
2022-08-26T11:29:45.260Z,517.50
2022-08-26T11:30:45.246Z,517.50
2022-08-26T11:31:45.286Z,517.50
2022-08-26T11:32:45.256Z,517.50
2022-08-26T11:33:45.223Z,511.88
2022-08-26T11:34:45.206Z,511.88
2022-08-26T11:35:45.202Z,506.25
2022-08-26T11:36:45.191Z,500.62
2022-08-26T11:37:45.181Z,500.62
2022-08-26T11:38:45.186Z,500.62
2022-08-26T11:39:47.259Z,495.00
2022-08-26T11:40:47.182Z,489.38
2022-08-26T11:41:45.147Z,483.75
2022-08-26T11:42:45.134Z,478.12
2022-08-26T11:43:45.136Z,472.50
2022-08-26T11:44:49.060Z,472.50
2022-08-26T11:45:45.156Z,461.25
2022-08-26T11:46:45.098Z,455.62
2022-08-26T11:47:45.115Z,455.62
2022-08-26T11:48:45.069Z,461.25
2022-08-26T11:49:45.075Z,450.00
2022-08-26T11:50:45.092Z,455.62
2022-08-26T11:51:48.149Z,455.62
2022-08-26T11:52:46.050Z,455.62
2022-08-26T11:53:45.031Z,455.62
2022-08-26T11:54:45.021Z,455.62
2022-08-26T11:55:45.034Z,461.25
2022-08-26T11:56:45.000Z,461.25
2022-08-26T11:57:45.001Z,461.25
2022-08-26T11:58:44.986Z,466.88
2022-08-26T11:59:44.982Z,466.88
2022-08-26T12:00:45.697Z,472.50
2022-08-26T12:01:44.973Z,472.50
2022-08-26T12:02:44.949Z,472.50
2022-08-26T12:03:45.014Z,478.12
2022-08-26T12:04:44.946Z,478.12
2022-08-26T12:05:44.923Z,483.75
2022-08-26T12:06:45.183Z,483.75
2022-08-26T12:07:44.901Z,483.75
2022-08-26T12:08:44.910Z,489.38
2022-08-26T12:09:44.887Z,489.38
2022-08-26T12:10:44.880Z,489.38
2022-08-26T12:11:44.894Z,489.38
2022-08-26T12:12:44.852Z,489.38
2022-08-26T12:13:44.879Z,489.38
2022-08-26T12:14:44.856Z,489.38
2022-08-26T12:15:44.830Z,489.38
2022-08-26T12:16:44.851Z,489.38
2022-08-26T12:17:44.833Z,489.38
2022-08-26T12:18:45.017Z,489.38
2022-08-26T12:19:44.791Z,489.38
2022-08-26T12:20:44.792Z,489.38
2022-08-26T12:21:44.772Z,489.38
2022-08-26T12:22:48.137Z,495.00
2022-08-26T12:23:44.785Z,500.62
2022-08-26T12:24:44.755Z,500.62
2022-08-26T12:25:44.745Z,506.25
2022-08-26T12:26:44.730Z,506.25
2022-08-26T12:27:44.722Z,511.88
2022-08-26T12:28:44.745Z,523.12
2022-08-26T12:29:48.603Z,528.75
2022-08-26T12:30:44.695Z,540.00
2022-08-26T12:31:44.782Z,545.62
2022-08-26T12:32:57.340Z,562.50
2022-08-26T12:33:44.673Z,573.75
2022-08-26T12:34:44.668Z,590.62
2022-08-26T12:35:44.656Z,607.50
2022-08-26T12:36:44.639Z,630.00
2022-08-26T12:37:44.653Z,658.12
2022-08-26T12:38:44.620Z,680.62
2022-08-26T12:39:44.627Z,720.00
2022-08-26T12:40:44.610Z,742.50
2022-08-26T12:41:44.597Z,765.00
2022-08-26T12:42:44.593Z,810.00
2022-08-26T12:43:44.611Z,843.75